Time;durP1;ratioP1;P1;durP2;ratioP2;P2;SDS_P1;SDS_P2;PMS_P1;PMS_P2;Temp;Humidity;BMP_temperature;BMP_pressure;BME280_temperature;BME280_humidity;BME280_pressure;Samples;Min_cycle;Max_cycle;Signal;HPM_P1;HPM_P2
2023/06/04 00:01:53;;;;;;;3.83;2.20;;;;;;;10.55;100.00;102445.06;5012884;28;20218;-74
2023/06/04 00:04:18;;;;;;;3.37;2.03;;;;;;;10.49;100.00;102447.34;5008749;28;20648;-74
2023/06/04 00:06:43;;;;;;;4.40;2.57;;;;;;;10.43;100.00;102451.31;5009043;28;20190;-74
2023/06/04 00:09:09;;;;;;;3.00;2.30;;;;;;;10.37;100.00;102444.22;5008351;28;20868;-77
2023/06/04 00:11:35;;;;;;;3.33;2.53;;;;;;;10.25;100.00;102446.25;5008430;28;20309;-74
2023/06/04 00:14:00;;;;;;;2.80;2.33;;;;;;;10.26;100.00;102430.06;4992108;28;20285;-74
2023/06/04 00:16:26;;;;;;;3.73;2.57;;;;;;;10.21;100.00;102428.97;5008447;28;20205;-76
2023/06/04 00:18:51;;;;;;;3.83;2.43;;;;;;;10.21;100.00;102434.09;5008726;28;20207;-75
2023/06/04 00:21:17;;;;;;;3.47;2.67;;;;;;;10.17;100.00;102441.56;5008636;28;20715;-78
2023/06/04 00:23:42;;;;;;;3.70;2.40;;;;;;;10.24;100.00;102407.75;4987294;28;20195;-74
2023/06/04 00:26:08;;;;;;;3.73;2.13;;;;;;;10.15;100.00;102420.13;4991044;28;20206;-75
2023/06/04 00:28:33;;;;;;;3.73;2.17;;;;;;;10.16;100.00;102419.31;4986929;28;20191;-74
2023/06/04 00:30:59;;;;;;;3.77;2.60;;;;;;;10.08;100.00;102405.28;4993221;28;20845;-74
2023/06/04 00:33:24;;;;;;;3.03;2.17;;;;;;;10.10;100.00;102419.91;5008303;28;20233;-76
2023/06/04 00:35:50;;;;;;;2.77;1.90;;;;;;;10.02;100.00;102410.09;5008426;28;20791;-73
2023/06/04 00:38:16;;;;;;;4.77;1.97;;;;;;;10.03;100.00;102391.38;5012131;28;20219;-74
2023/06/04 00:40:41;;;;;;;5.43;1.97;;;;;;;9.92;100.00;102401.13;4990088;28;20191;-76
2023/06/04 00:43:06;;;;;;;3.07;2.07;;;;;;;9.91;100.00;102412.16;5013074;28;20214;-76
2023/06/04 00:45:32;;;;;;;3.60;2.20;;;;;;;10.03;100.00;102399.94;4998203;28;20288;-74
2023/06/04 00:47:58;;;;;;;2.70;1.80;;;;;;;9.98;100.00;102400.53;5011852;28;20282;-73
2023/06/04 00:50:24;;;;;;;3.50;2.23;;;;;;;9.94;100.00;102419.97;5012299;28;20281;-78
2023/06/04 00:52:51;;;;;;;2.60;2.40;;;;;;;9.88;100.00;102429.03;5004056;28;20222;-74
2023/06/04 00:55:18;;;;;;;3.20;2.20;;;;;;;9.83;100.00;102441.63;5002466;28;20194;-73
2023/06/04 00:57:44;;;;;;;4.30;2.30;;;;;;;9.79;100.00;102449.06;4990627;28;20215;-77
2023/06/04 01:00:10;;;;;;;2.13;1.93;;;;;;;9.83;100.00;102433.97;5010249;28;20638;-78
2023/06/04 01:02:40;;;;;;;8.00;2.50;;;;;;;9.82;100.00;102423.66;5010839;28;20213;-73
2023/06/04 01:05:29;;;;;;;4.70;2.57;;;;;;;9.72;100.00;102414.66;5011937;28;20199;-76
2023/06/04 01:07:57;;;;;;;3.20;2.60;;;;;;;9.76;100.00;102398.66;5009318;28;20193;-76
2023/06/04 01:10:22;;;;;;;2.93;2.20;;;;;;;9.72;100.00;102408.66;4993775;28;20214;-74
2023/06/04 01:12:48;;;;;;;3.83;3.00;;;;;;;9.62;100.00;102414.13;4998675;28;20727;-77
2023/06/04 01:15:14;;;;;;;4.27;2.70;;;;;;;9.63;100.00;102411.66;4989062;28;20182;-74
2023/06/04 01:17:46;;;;;;;4.40;3.10;;;;;;;9.59;100.00;102407.19;4996106;28;20210;-73
2023/06/04 01:20:12;;;;;;;3.83;2.83;;;;;;;9.56;100.00;102417.28;4999857;28;20194;-73
2023/06/04 01:22:41;;;;;;;4.63;2.87;;;;;;;9.49;100.00;102415.22;4993324;28;20225;-75
2023/06/04 01:25:19;;;;;;;4.67;3.00;;;;;;;9.48;100.00;102394.69;5000564;28;20210;-75
2023/06/04 01:27:50;;;;;;;4.70;2.97;;;;;;;9.41;100.00;102393.53;4990325;28;20281;-75
2023/06/04 01:30:17;;;;;;;3.90;3.17;;;;;;;9.39;100.00;102400.22;4990053;28;20203;-77
2023/06/04 01:32:44;;;;;;;3.80;2.77;;;;;;;9.37;100.00;102386.50;5006656;28;20624;-75
2023/06/04 01:35:11;;;;;;;3.73;2.63;;;;;;;9.30;100.00;102379.34;5010808;28;20194;-73
2023/06/04 01:37:37;;;;;;;4.40;2.33;;;;;;;9.28;100.00;102374.94;4997662;28;20248;-76
2023/06/04 01:40:03;;;;;;;5.13;2.23;;;;;;;9.26;100.00;102368.91;5010844;28;20712;-74
2023/06/04 01:42:28;;;;;;;3.50;2.53;;;;;;;9.19;100.00;102357.50;4996615;28;20306;-74
2023/06/04 01:44:55;;;;;;;2.67;2.30;;;;;;;9.17;100.00;102345.44;4992976;28;20186;-74
2023/06/04 01:47:20;;;;;;;3.70;2.60;;;;;;;9.14;100.00;102343.63;4997062;28;20195;-74
2023/06/04 01:49:46;;;;;;;3.00;2.00;;;;;;;9.13;100.00;102341.84;4992642;28;20213;-74
2023/06/04 01:52:11;;;;;;;4.77;1.90;;;;;;;9.06;100.00;102344.91;5010251;28;20754;-76
2023/06/04 01:54:38;;;;;;;2.20;1.70;;;;;;;9.05;100.00;102337.16;5010589;28;20199;-74
2023/06/04 01:57:05;;;;;;;2.10;1.60;;;;;;;9.04;100.00;102325.19;4992571;28;20664;-76
2023/06/04 01:59:31;;;;;;;2.00;1.50;;;;;;;8.99;100.00;102324.09;4992299;28;20225;-76
2023/06/04 02:01:57;;;;;;;2.70;1.50;;;;;;;8.93;100.00;102334.00;4980585;28;20635;-74
2023/06/04 02:04:23;;;;;;;2.50;1.40;;;;;;;8.91;100.00;102331.41;4992518;28;20278;-76
2023/06/04 02:06:50;;;;;;;1.73;1.43;;;;;;;8.85;100.00;102336.16;4993723;28;20201;-74
2023/06/04 02:09:16;;;;;;;2.17;1.30;;;;;;;8.82;100.00;102335.16;5010232;28;20195;-75
2023/06/04 02:11:41;;;;;;;1.63;1.53;;;;;;;8.80;100.00;102326.56;5009879;28;20264;-76
2023/06/04 02:14:06;;;;;;;2.07;1.60;;;;;;;8.78;100.00;102336.69;4992277;28;20226;-73
2023/06/04 02:16:32;;;;;;;2.20;1.60;;;;;;;8.77;100.00;102331.50;5006585;28;20191;-77
2023/06/04 02:18:59;;;;;;;2.10;1.30;;;;;;;8.74;100.00;102344.09;5009856;28;20233;-76
2023/06/04 02:21:24;;;;;;;3.03;1.80;;;;;;;8.64;100.00;102332.56;5009862;28;20979;-74
2023/06/04 02:23:50;;;;;;;4.03;1.60;;;;;;;8.61;100.00;102328.97;4992135;28;20228;-76
2023/06/04 02:26:15;;;;;;;4.57;1.70;;;;;;;8.63;100.00;102332.47;4984341;28;20195;-74
2023/06/04 02:28:41;;;;;;;2.60;1.33;;;;;;;8.60;100.00;102328.09;5009840;28;20562;-74
2023/06/04 02:31:07;;;;;;;1.63;1.40;;;;;;;8.59;100.00;102339.09;5010369;28;20219;-76
2023/06/04 02:33:32;;;;;;;2.00;1.57;;;;;;;8.53;100.00;102338.78;4996261;28;20194;-76
2023/06/04 02:35:58;;;;;;;1.53;1.20;;;;;;;8.45;100.00;102341.75;4997295;28;20199;-74
2023/06/04 02:38:23;;;;;;;1.50;1.40;;;;;;;8.45;100.00;102342.63;5009978;28;20206;-74
2023/06/04 02:40:49;;;;;;;2.07;1.77;;;;;;;8.43;100.00;102336.56;4996003;28;20229;-77
2023/06/04 02:43:15;;;;;;;2.43;1.37;;;;;;;8.41;100.00;102337.25;4991855;28;20191;-74
2023/06/04 02:45:40;;;;;;;2.47;1.50;;;;;;;8.36;100.00;102333.59;5008379;28;20541;-74
2023/06/04 02:48:06;;;;;;;2.10;1.60;;;;;;;8.37;100.00;102331.13;4993729;28;20277;-74
2023/06/04 02:50:32;;;;;;;2.83;1.50;;;;;;;8.34;100.00;102341.16;4991706;28;20652;-75
2023/06/04 02:52:57;;;;;;;2.87;1.87;;;;;;;8.36;100.00;102342.16;4992136;28;20193;-75
2023/06/04 02:55:22;;;;;;;2.03;1.67;;;;;;;8.32;100.00;102345.34;5009143;28;20262;-74
2023/06/04 02:57:51;;;;;;;2.17;1.43;;;;;;;8.30;100.00;102343.50;5009621;28;20277;-75
2023/06/04 03:00:17;;;;;;;2.43;1.77;;;;;;;8.25;100.00;102343.25;5007996;28;20191;-74
2023/06/04 03:02:48;;;;;;;4.43;1.53;;;;;;;8.21;100.00;102343.00;4986539;28;20215;-74
2023/06/04 03:05:17;;;;;;;3.23;1.67;;;;;;;8.21;100.00;102337.91;5001549;28;20194;-74
2023/06/04 03:07:44;;;;;;;3.60;1.80;;;;;;;8.27;100.00;102334.00;4997166;28;20191;-75
2023/06/04 03:10:11;;;;;;;2.90;1.67;;;;;;;8.26;100.00;102339.91;5009510;28;20210;-73
2023/06/04 03:12:37;;;;;;;1.90;1.37;;;;;;;8.25;100.00;102339.84;4991153;28;20281;-74
2023/06/04 03:15:04;;;;;;;3.17;1.63;;;;;;;8.26;100.00;102339.03;4990902;28;20198;-74
2023/06/04 03:17:31;;;;;;;2.43;1.40;;;;;;;8.27;100.00;102344.22;4996996;28;20230;-74
2023/06/04 03:19:56;;;;;;;1.90;1.40;;;;;;;8.23;100.00;102339.75;4996605;28;20223;-78
2023/06/04 03:22:22;;;;;;;1.93;1.60;;;;;;;8.26;100.00;102349.22;4990556;28;20214;-74
2023/06/04 03:24:47;;;;;;;1.87;1.60;;;;;;;8.22;100.00;102348.22;4991516;28;20193;-74
2023/06/04 03:27:13;;;;;;;2.90;1.50;;;;;;;8.16;100.00;102339.31;4991161;28;20194;-75
2023/06/04 03:29:40;;;;;;;2.90;1.50;;;;;;;8.17;100.00;102343.63;4991291;28;20191;-74
2023/06/04 03:32:07;;;;;;;3.60;1.57;;;;;;;8.17;100.00;102341.06;4990701;28;20281;-74
2023/06/04 03:34:32;;;;;;;3.43;1.80;;;;;;;8.19;100.00;102342.00;5008760;28;20194;-74
2023/06/04 03:36:59;;;;;;;3.70;1.77;;;;;;;8.19;100.00;102329.25;5008500;28;20190;-75
2023/06/04 03:39:25;;;;;;;2.77;1.60;;;;;;;8.20;100.00;102339.56;4985949;28;20280;-75
2023/06/04 03:41:51;;;;;;;2.27;1.60;;;;;;;8.19;100.00;102337.78;4990602;28;20260;-75
2023/06/04 03:44:19;;;;;;;2.30;1.60;;;;;;;8.31;100.00;102335.94;4990562;28;20199;-75
2023/06/04 03:46:45;;;;;;;2.00;1.70;;;;;;;8.34;100.00;102335.22;4991300;28;20194;-76
2023/06/04 03:49:13;;;;;;;2.70;1.80;;;;;;;8.35;100.00;102336.97;4987096;28;20188;-77
2023/06/04 03:51:40;;;;;;;4.70;1.97;;;;;;;8.38;100.00;102332.03;4996425;28;20237;-74
2023/06/04 03:54:06;;;;;;;3.23;2.13;;;;;;;8.42;100.00;102327.16;4989706;28;20202;-75
2023/06/04 03:56:32;;;;;;;2.67;1.70;;;;;;;8.50;100.00;102327.53;4992040;28;20249;-75
2023/06/04 03:58:58;;;;;;;2.77;2.03;;;;;;;8.54;100.00;102329.44;4976133;28;20207;-76
2023/06/04 04:01:24;;;;;;;2.47;1.63;;;;;;;8.57;100.00;102330.47;4994370;28;20264;-77
2023/06/04 04:03:50;;;;;;;2.03;1.73;;;;;;;8.57;100.00;102329.63;4996883;28;20748;-74
2023/06/04 04:06:17;;;;;;;3.90;2.13;;;;;;;8.59;100.00;102334.00;4991918;28;20261;-74
2023/06/04 04:08:43;;;;;;;4.10;1.90;;;;;;;8.61;100.00;102329.84;4985962;28;20183;-77
2023/06/04 04:11:15;;;;;;;3.17;1.87;;;;;;;8.70;100.00;102337.09;4991658;28;20219;-76
2023/06/04 04:13:40;;;;;;;3.80;1.80;;;;;;;8.79;100.00;102337.53;4992661;28;20281;-77
2023/06/04 04:16:06;;;;;;;2.57;1.63;;;;;;;8.82;100.00;102330.03;4994730;28;20531;-74
2023/06/04 04:18:36;;;;;;;4.03;2.00;;;;;;;8.94;100.00;102339.19;5000568;28;20215;-75
2023/06/04 04:21:03;;;;;;;3.30;2.00;;;;;;;9.04;100.00;102325.19;4994656;28;20315;-77
2023/06/04 04:23:31;;;;;;;3.00;2.20;;;;;;;9.07;100.00;102328.78;4994490;28;20191;-74
2023/06/04 04:26:02;;;;;;;3.53;2.17;;;;;;;9.10;100.00;102328.94;4978455;28;20286;-75
2023/06/04 04:28:28;;;;;;;2.97;2.13;;;;;;;9.16;100.00;102328.34;4992729;28;20758;-74
2023/06/04 04:31:06;;;;;;;3.07;2.20;;;;;;;9.27;100.00;102334.88;5004235;28;20211;-75
2023/06/04 04:33:39;;;;;;;3.10;2.03;;;;;;;9.37;100.00;102335.38;4994311;28;20245;-75
2023/06/04 04:36:12;;;;;;;3.33;2.43;;;;;;;9.46;100.00;102334.94;4994262;28;20230;-77
2023/06/04 04:38:38;;;;;;;4.03;2.30;;;;;;;9.53;100.00;102332.75;5000162;28;20268;-75
2023/06/04 04:41:04;;;;;;;3.47;2.20;;;;;;;9.61;100.00;102336.56;4980730;28;20219;-75
2023/06/04 04:43:35;;;;;;;3.27;2.20;;;;;;;9.70;100.00;102330.97;4987263;28;20751;-75
2023/06/04 04:46:20;;;;;;;2.70;2.20;;;;;;;9.87;100.00;102337.75;5011217;28;20279;-76
2023/06/04 04:48:46;;;;;;;2.67;2.17;;;;;;;9.97;100.00;102335.69;4978320;28;20692;-75
2023/06/04 04:51:11;;;;;;;2.67;2.10;;;;;;;10.08;100.00;102324.28;5011727;28;20263;-76
2023/06/04 04:53:37;;;;;;;3.47;2.43;;;;;;;10.22;100.00;102327.44;4977686;28;20233;-77
2023/06/04 04:56:03;;;;;;;3.97;2.30;;;;;;;10.32;100.00;102320.25;5011773;28;20803;-74
2023/06/04 04:58:30;;;;;;;3.07;2.00;;;;;;;10.42;100.00;102324.94;4995808;28;20234;-74
2023/06/04 05:00:56;;;;;;;4.60;2.00;;;;;;;10.54;100.00;102329.72;4994310;28;20214;-75
2023/06/04 05:03:22;;;;;;;2.70;2.07;;;;;;;10.66;100.00;102323.47;5005147;28;20652;-76
2023/06/04 05:05:47;;;;;;;5.40;1.93;;;;;;;10.80;100.00;102324.03;5000520;28;20839;-75
2023/06/04 05:08:13;;;;;;;2.90;2.33;;;;;;;10.90;100.00;102323.63;5030986;28;20195;-75
2023/06/04 05:10:41;;;;;;;2.00;1.60;;;;;;;11.01;100.00;102324.94;5000163;28;20191;-76
2023/06/04 05:13:08;;;;;;;2.23;1.63;;;;;;;11.17;100.00;102327.31;4996149;28;20214;-74
2023/06/04 05:15:42;;;;;;;2.20;2.00;;;;;;;11.30;100.00;102315.03;4987799;28;20187;-75
2023/06/04 05:18:08;;;;;;;4.07;2.10;;;;;;;11.44;100.00;102328.44;4993986;28;20191;-74
2023/06/04 05:20:37;;;;;;;2.70;2.50;;;;;;;11.58;100.00;102330.72;5000433;28;20223;-75
2023/06/04 05:23:04;;;;;;;3.20;2.90;;;;;;;11.71;100.00;102332.09;4995670;28;20187;-78
2023/06/04 05:25:31;;;;;;;6.53;2.80;;;;;;;11.86;100.00;102330.13;4983829;28;20644;-75
2023/06/04 05:27:57;;;;;;;5.07;3.37;;;;;;;11.96;100.00;102327.06;4998349;28;20222;-75
2023/06/04 05:30:22;;;;;;;6.50;3.20;;;;;;;12.08;100.00;102322.41;4999778;28;20270;-74
2023/06/04 05:32:50;;;;;;;3.97;2.87;;;;;;;12.15;100.00;102308.97;4994024;28;20218;-74
2023/06/04 05:35:17;;;;;;;3.20;2.57;;;;;;;12.31;100.00;102324.97;4997931;28;20712;-76
2023/06/04 05:37:45;;;;;;;4.23;2.43;;;;;;;12.39;100.00;102287.59;4985525;28;20274;-75
2023/06/04 05:40:12;;;;;;;5.10;3.03;;;;;;;12.48;100.00;102275.06;4999231;28;20582;-74
2023/06/04 05:42:38;;;;;;;3.43;2.30;;;;;;;12.59;100.00;102257.47;4999921;28;20207;-75
2023/06/04 05:45:05;;;;;;;5.07;2.53;;;;;;;12.72;100.00;102228.78;4983907;28;20613;-76
2023/06/04 05:47:31;;;;;;;2.53;2.27;;;;;;;12.86;100.00;102236.09;4982024;28;20190;-74
2023/06/04 05:49:57;;;;;;;3.17;2.20;;;;;;;12.99;100.00;102183.44;4977342;28;20684;-74
2023/06/04 05:52:23;;;;;;;4.90;1.83;;;;;;;13.12;100.00;102157.22;4992428;28;20207;-74
2023/06/04 05:54:49;;;;;;;2.87;1.93;;;;;;;13.32;100.00;102126.97;5006168;28;20187;-74
2023/06/04 05:57:15;;;;;;;3.97;1.67;;;;;;;13.42;100.00;102090.38;5003129;28;20205;-76
2023/06/04 05:59:40;;;;;;;3.10;1.87;;;;;;;13.61;100.00;102108.94;4996500;28;20299;-75
2023/06/04 06:02:09;;;;;;;4.67;1.93;;;;;;;13.74;100.00;102107.56;5003353;28;20257;-75
2023/06/04 06:04:36;;;;;;;3.20;1.40;;;;;;;13.78;100.00;102063.94;4992895;28;20203;-75
2023/06/04 06:07:01;;;;;;;2.47;1.60;;;;;;;13.97;100.00;102089.31;4993035;28;20243;-75
2023/06/04 06:09:27;;;;;;;2.63;1.60;;;;;;;14.05;100.00;102066.31;4999002;28;20191;-77
2023/06/04 06:11:53;;;;;;;1.80;1.30;;;;;;;14.21;100.00;102097.69;4976739;28;20775;-75
2023/06/04 06:14:18;;;;;;;2.30;1.60;;;;;;;14.33;100.00;102073.94;4991152;28;20213;-75
2023/06/04 06:16:44;;;;;;;2.93;1.60;;;;;;;14.48;100.00;102082.00;5010301;28;20249;-74
2023/06/04 06:19:10;;;;;;;1.60;1.50;;;;;;;14.56;100.00;102072.75;4995520;28;20568;-77
2023/06/04 06:21:36;;;;;;;3.17;2.10;;;;;;;14.79;100.00;102069.88;4989479;28;20679;-75
2023/06/04 06:24:02;;;;;;;2.83;1.70;;;;;;;14.96;100.00;102047.88;4999263;28;20290;-76
2023/06/04 06:26:27;;;;;;;3.30;1.37;;;;;;;15.07;100.00;102055.84;4998923;28;20566;-75
2023/06/04 06:28:56;;;;;;;5.17;1.43;;;;;;;15.28;100.00;102079.50;4993156;28;20237;-76
2023/06/04 06:31:22;;;;;;;4.00;1.50;;;;;;;15.35;100.00;102064.22;4992508;28;20743;-75
2023/06/04 06:33:47;;;;;;;1.83;1.70;;;;;;;15.59;100.00;102045.72;4993823;28;20560;-75
2023/06/04 06:36:13;;;;;;;3.73;1.43;;;;;;;15.70;100.00;102042.47;5025297;28;20194;-75
2023/06/04 06:38:38;;;;;;;2.33;1.57;;;;;;;15.82;100.00;102044.41;4993082;28;20556;-77
2023/06/04 06:41:04;;;;;;;3.27;1.50;;;;;;;15.99;100.00;101996.47;5009101;28;20262;-77
2023/06/04 06:43:31;;;;;;;3.00;1.17;;;;;;;16.16;94.99;101966.59;5009711;28;20313;-75
2023/06/04 06:45:56;;;;;;;3.90;1.50;;;;;;;16.29;92.86;101958.16;4992530;28;20645;-74
2023/06/04 06:48:21;;;;;;;4.30;1.27;;;;;;;16.48;94.13;101976.56;5006274;28;20249;-75
2023/06/04 06:50:47;;;;;;;1.60;1.00;;;;;;;16.62;89.40;101959.50;5010198;28;20199;-73
2023/06/04 06:53:12;;;;;;;1.50;1.23;;;;;;;16.63;84.70;101943.13;5008192;28;20207;-73
2023/06/04 06:55:38;;;;;;;1.97;1.40;;;;;;;16.77;82.02;101945.91;5008100;28;20278;-78
2023/06/04 06:58:03;;;;;;;3.13;1.20;;;;;;;17.09;86.43;101989.41;4997675;28;20660;-74
2023/06/04 07:00:29;;;;;;;3.30;1.50;;;;;;;17.21;82.80;101986.09;5008748;28;20203;-75
2023/06/04 07:02:55;;;;;;;1.47;1.10;;;;;;;17.29;73.32;101961.16;4998539;28;20241;-74
2023/06/04 07:05:21;;;;;;;1.70;1.13;;;;;;;17.40;73.32;102003.63;5007976;28;20207;-76
2023/06/04 07:07:46;;;;;;;2.40;1.37;;;;;;;17.51;71.95;102026.19;4986942;28;20270;-77
2023/06/04 07:10:13;;;;;;;1.80;1.30;;;;;;;17.57;69.47;102026.22;4992734;28;20280;-77
2023/06/04 07:12:39;;;;;;;2.17;1.20;;;;;;;17.77;70.27;102041.97;4991323;28;20712;-77
2023/06/04 07:15:06;;;;;;;1.40;1.10;;;;;;;17.89;67.58;102044.66;5007025;28;20199;-76
2023/06/04 07:17:31;;;;;;;2.10;1.00;;;;;;;18.05;68.41;102060.34;5008338;28;20245;-76
2023/06/04 07:19:57;;;;;;;3.33;1.30;;;;;;;18.22;64.13;102039.75;5008888;28;20223;-76
2023/06/04 07:22:22;;;;;;;3.17;1.20;;;;;;;18.39;68.41;102077.09;5007913;28;20223;-76
2023/06/04 07:24:48;;;;;;;2.30;1.23;;;;;;;18.59;68.70;102072.91;5008340;28;20229;-76
2023/06/04 07:27:14;;;;;;;3.47;1.10;;;;;;;18.85;63.99;102050.56;5009152;28;20281;-74
2023/06/04 07:29:40;;;;;;;7.60;1.27;;;;;;;18.93;61.12;102052.34;5004699;28;20187;-75
2023/06/04 07:32:06;;;;;;;1.20;1.10;;;;;;;18.94;60.18;102058.41;4990330;28;20225;-76
2023/06/04 07:34:32;;;;;;;3.00;0.83;;;;;;;19.01;59.39;102062.75;4989892;28;20277;-78
2023/06/04 07:36:58;;;;;;;2.37;1.47;;;;;;;19.19;58.03;102065.44;4996243;28;20199;-75
2023/06/04 07:39:23;;;;;;;2.63;1.10;;;;;;;19.41;60.27;102081.16;5007425;28;20214;-76
2023/06/04 07:41:49;;;;;;;2.30;1.07;;;;;;;19.45;58.88;102074.22;5005540;28;20237;-75
2023/06/04 07:44:14;;;;;;;2.87;1.30;;;;;;;19.57;60.16;102101.13;5007232;28;20575;-76
2023/06/04 07:46:40;;;;;;;2.03;1.30;;;;;;;19.65;59.82;102081.22;4995357;28;20207;-78
2023/06/04 07:49:05;;;;;;;1.90;1.20;;;;;;;19.92;57.92;102083.00;5001116;28;20644;-76
2023/06/04 07:51:31;;;;;;;3.20;1.10;;;;;;;19.93;57.74;102084.72;5014602;28;20242;-75
2023/06/04 07:53:56;;;;;;;1.43;1.10;;;;;;;19.96;55.91;102067.41;5015242;28;20603;-76
2023/06/04 07:56:22;;;;;;;2.90;1.30;;;;;;;20.07;56.66;102085.59;4997214;28;20202;-75
2023/06/04 07:58:48;;;;;;;2.27;1.30;;;;;;;20.25;56.04;102083.91;4997019;28;20210;-76
2023/06/04 08:01:15;;;;;;;2.03;1.20;;;;;;;20.15;54.22;102110.81;5015801;28;20215;-76
2023/06/04 08:03:41;;;;;;;1.70;1.10;;;;;;;20.51;55.88;102131.63;5014486;28;20278;-76
2023/06/04 08:06:07;;;;;;;3.97;1.00;;;;;;;20.71;50.40;102076.91;5008971;28;20265;-76
2023/06/04 08:08:33;;;;;;;1.70;1.30;;;;;;;20.70;49.57;102094.28;4996508;28;21609;-75
2023/06/04 08:10:59;;;;;;;1.50;1.17;;;;;;;20.71;50.11;102111.63;5014468;28;20268;-78
2023/06/04 08:13:25;;;;;;;1.33;1.10;;;;;;;20.95;48.87;102098.59;5014216;28;20194;-74
2023/06/04 08:15:50;;;;;;;3.30;1.50;;;;;;;20.98;52.82;102165.44;5014479;28;20664;-76
2023/06/04 08:18:15;;;;;;;3.07;1.30;;;;;;;21.01;50.71;102127.22;5014572;28;20202;-76
2023/06/04 08:20:41;;;;;;;1.73;1.40;;;;;;;21.33;49.82;102106.28;4998374;28;20196;-75
2023/06/04 08:23:06;;;;;;;2.63;1.37;;;;;;;21.52;49.13;102113.13;5013299;28;20482;-75
2023/06/04 08:25:33;;;;;;;1.97;0.90;;;;;;;21.44;47.04;102107.09;5010656;28;20313;-76
2023/06/04 08:27:58;;;;;;;1.50;1.10;;;;;;;21.57;46.24;102100.94;5014617;28;20673;-76
2023/06/04 08:30:25;;;;;;;2.77;1.40;;;;;;;21.61;45.92;102120.91;4996916;28;20233;-76
2023/06/04 08:32:50;;;;;;;2.07;1.20;;;;;;;21.70;46.41;102179.13;4996251;28;20214;-75
2023/06/04 08:35:16;;;;;;;1.77;1.20;;;;;;;22.06;43.92;102168.50;5010231;28;20628;-77
2023/06/04 08:37:41;;;;;;;2.70;1.60;;;;;;;22.15;44.16;102181.47;5014882;28;20179;-74
2023/06/04 08:40:09;;;;;;;1.57;1.10;;;;;;;22.13;43.86;102178.03;5032402;28;20302;-75
2023/06/04 08:42:42;;;;;;;1.43;1.00;;;;;;;22.33;44.49;102217.03;5013583;28;20257;-76
2023/06/04 08:45:12;;;;;;;1.97;1.40;;;;;;;22.48;45.76;102231.78;5006625;28;20689;-75
2023/06/04 08:47:43;;;;;;;2.13;1.20;;;;;;;22.62;42.74;102175.94;5013074;28;20183;-74
2023/06/04 08:50:10;;;;;;;2.20;1.50;;;;;;;22.63;43.19;102185.50;5013942;28;20191;-75
2023/06/04 08:52:37;;;;;;;2.20;1.40;;;;;;;22.79;43.22;102174.03;5013399;28;20305;-77
2023/06/04 08:55:03;;;;;;;1.63;1.10;;;;;;;21.82;42.12;102166.03;5014338;28;20195;-76
2023/06/04 08:57:30;;;;;;;2.70;1.20;;;;;;;22.61;43.68;102205.53;5012054;28;20269;-74
2023/06/04 08:59:56;;;;;;;2.97;1.10;;;;;;;22.92;43.37;102193.09;5012100;28;20257;-74
2023/06/04 09:02:22;;;;;;;2.13;1.20;;;;;;;23.08;43.28;102199.91;5011641;28;20207;-75
2023/06/04 09:04:48;;;;;;;1.33;1.10;;;;;;;23.24;42.30;102180.59;5004924;28;20770;-75
2023/06/04 09:07:14;;;;;;;2.27;1.30;;;;;;;23.38;42.08;102189.16;5007899;28;20369;-74
2023/06/04 09:09:40;;;;;;;2.23;1.10;;;;;;;22.96;40.89;102185.19;5011449;28;20183;-74
2023/06/04 09:12:11;;;;;;;2.17;1.20;;;;;;;22.95;41.83;102208.72;5011465;28;20629;-76
2023/06/04 09:14:36;;;;;;;1.80;1.00;;;;;;;23.14;41.50;102211.16;5010790;28;20196;-74
2023/06/04 09:17:02;;;;;;;2.03;1.10;;;;;;;23.42;40.33;102190.81;5011521;28;20197;-74
2023/06/04 09:19:27;;;;;;;2.37;1.47;;;;;;;23.41;40.36;102189.97;5011223;28;20215;-74
2023/06/04 09:21:58;;;;;;;1.97;1.30;;;;;;;23.03;39.38;102193.84;5011104;28;20284;-75
2023/06/04 09:24:26;;;;;;;2.23;1.17;;;;;;;23.37;39.81;102217.03;5008616;28;20199;-74
2023/06/04 09:26:51;;;;;;;1.63;1.00;;;;;;;23.30;39.66;102196.22;4993812;28;20191;-75
2023/06/04 09:29:18;;;;;;;1.77;1.10;;;;;;;23.55;40.82;102218.56;5011140;28;20198;-77
2023/06/04 09:31:57;;;;;;;2.73;1.30;;;;;;;22.78;39.87;102219.34;4969424;28;20354;-74
2023/06/04 09:34:28;;;;;;;1.53;1.10;;;;;;;23.61;40.74;102229.84;5010548;28;20195;-74
2023/06/04 09:36:54;;;;;;;3.07;1.67;;;;;;;23.95;40.93;102227.72;5011315;28;20214;-74
2023/06/04 09:39:20;;;;;;;1.20;1.03;;;;;;;24.15;39.27;102199.50;5011019;28;20227;-75
2023/06/04 09:41:57;;;;;;;1.97;1.23;;;;;;;24.22;39.41;102188.91;5010938;28;20275;-74
2023/06/04 09:44:22;;;;;;;3.00;1.27;;;;;;;24.26;38.17;102180.09;5010552;28;20237;-75
2023/06/04 09:46:58;;;;;;;2.45;1.35;;;;;;;24.18;36.69;102175.88;5010966;28;20195;-76
2023/06/04 09:49:24;;;;;;;2.80;1.30;;;;;;;23.10;38.30;102200.72;5010681;28;20214;-75
2023/06/04 09:51:49;;;;;;;3.67;1.57;;;;;;;23.73;38.35;102214.00;5010333;28;20245;-75
2023/06/04 09:54:15;;;;;;;3.23;1.30;;;;;;;22.48;39.38;102240.50;4993420;28;20191;-75
2023/06/04 09:56:41;;;;;;;1.60;1.13;;;;;;;22.87;39.53;102234.94;5006736;28;20783;-75
2023/06/04 09:59:09;;;;;;;1.90;1.20;;;;;;;23.73;39.28;102236.69;5026175;28;20301;-75
2023/06/04 10:01:38;;;;;;;3.07;1.40;;;;;;;24.02;38.45;102217.13;5010007;28;20211;-78
2023/06/04 10:04:06;;;;;;;3.40;1.30;;;;;;;24.24;39.10;102205.47;5010772;28;20202;-75
2023/06/04 10:06:34;;;;;;;3.57;1.50;;;;;;;24.81;40.22;102241.25;5010486;28;20191;-75
2023/06/04 10:09:10;;;;;;;2.73;1.30;;;;;;;24.56;38.72;102184.00;4977298;28;20206;-75
2023/06/04 10:11:43;;;;;;;3.30;1.55;;;;;;;24.91;39.73;102216.63;4993092;28;20215;-75
2023/06/04 10:14:14;;;;;;;2.13;1.20;;;;;;;25.23;40.12;102234.41;5010631;28;20191;-75
2023/06/04 10:16:40;;;;;;;1.23;1.08;;;;;;;25.23;38.90;102203.78;5010511;28;20279;-75
2023/06/04 10:19:07;;;;;;;2.60;1.33;;;;;;;25.40;38.90;102190.38;5010718;28;20297;-76
2023/06/04 10:21:37;;;;;;;2.17;1.05;;;;;;;25.62;37.88;102181.16;5005192;28;20917;-75
2023/06/04 10:24:03;;;;;;;3.60;2.17;;;;;;;25.54;37.00;102178.69;5006542;28;20195;-73
2023/06/04 10:26:29;;;;;;;3.13;1.55;;;;;;;25.48;37.23;102178.84;5003155;28;20246;-72
2023/06/04 10:28:57;;;;;;;2.83;1.38;;;;;;;25.37;36.76;102174.72;4992209;28;20218;-73
2023/06/04 10:31:22;;;;;;;5.50;4.03;;;;;;;24.81;37.60;102204.56;5015496;28;20211;-73
2023/06/04 10:33:53;;;;;;;2.70;1.35;;;;;;;25.29;38.13;102218.59;5006933;28;20230;-73
2023/06/04 10:36:21;;;;;;;2.97;1.50;;;;;;;25.00;35.49;102166.63;5005330;28;20191;-73
2023/06/04 10:38:54;;;;;;;3.67;1.50;;;;;;;25.35;38.56;102232.44;5003004;28;20301;-72
2023/06/04 10:41:21;;;;;;;3.45;1.13;;;;;;;25.38;37.27;102195.66;5005540;28;20219;-72
2023/06/04 10:43:51;;;;;;;2.13;1.23;;;;;;;24.90;37.44;102195.66;4991788;28;20647;-72
2023/06/04 10:46:18;;;;;;;2.78;1.23;;;;;;;25.70;36.84;102189.75;5009389;28;20232;-73
2023/06/04 10:48:50;;;;;;;2.67;1.25;;;;;;;25.85;37.15;102192.91;5005201;28;20245;-72
2023/06/04 10:51:40;;;;;;;2.10;1.35;;;;;;;25.75;35.65;102172.13;5005947;28;20226;-73
2023/06/04 10:54:06;;;;;;;6.35;1.35;;;;;;;25.90;34.61;102171.78;4996768;28;20237;-73
2023/06/04 10:56:37;;;;;;;2.80;1.30;;;;;;;25.68;35.70;102194.16;4986578;28;20206;-73
2023/06/04 10:59:17;;;;;;;2.95;1.50;;;;;;;26.07;35.58;102193.34;5009649;28;20203;-73
2023/06/04 11:01:43;;;;;;;2.40;1.20;;;;;;;26.33;35.29;102191.81;5009189;28;20217;-75
2023/06/04 11:04:24;;;;;;;3.92;1.20;;;;;;;26.18;35.52;102188.69;5007728;28;20206;-73
2023/06/04 11:07:04;;;;;;;1.90;1.30;;;;;;;26.26;33.93;102179.75;5004002;28;20187;-73
2023/06/04 11:09:31;;;;;;;1.63;1.27;;;;;;;26.31;36.25;102234.81;5007268;28;20215;-73
2023/06/04 11:12:00;;;;;;;3.03;1.50;;;;;;;26.44;35.03;102205.56;5009360;28;20266;-74
2023/06/04 11:14:26;;;;;;;2.50;1.30;;;;;;;26.54;36.11;102212.34;5007023;28;20201;-74
2023/06/04 11:16:52;;;;;;;1.90;1.20;;;;;;;26.24;34.55;102176.28;5009363;28;20258;-73
2023/06/04 11:19:17;;;;;;;3.33;1.50;;;;;;;26.43;34.60;102193.31;5009324;28;20244;-74
2023/06/04 11:21:43;;;;;;;1.77;1.20;;;;;;;25.73;34.52;102195.78;5007907;28;20222;-74
2023/06/04 11:24:09;;;;;;;2.20;1.40;;;;;;;24.01;36.05;102241.59;4984581;28;20241;-70